createdAt,value
2023-01-11T00:11:59.846Z,4.88
2023-01-11T00:27:00.138Z,4.77
2023-01-11T00:42:02.116Z,4.82
2023-01-11T00:57:03.289Z,4.99
2023-01-11T01:12:05.346Z,4.99
2023-01-11T01:27:06.076Z,5.07
2023-01-11T01:42:06.752Z,5.20
2023-01-11T01:57:07.030Z,5.13
2023-01-11T02:12:08.492Z,5.31
2023-01-11T02:27:08.660Z,5.25
2023-01-11T02:42:08.954Z,5.38
2023-01-11T02:57:09.149Z,5.49
2023-01-11T03:12:19.359Z,5.58
2023-01-11T03:27:19.513Z,5.57
2023-01-11T03:42:21.692Z,5.48
2023-01-11T03:57:23.213Z,5.60
2023-01-11T04:12:25.083Z,5.60
2023-01-11T04:27:26.852Z,5.68
2023-01-11T04:42:28.306Z,5.74
2023-01-11T04:57:28.501Z,5.91
2023-01-11T05:12:30.848Z,5.81
2023-01-11T05:27:31.047Z,5.93
2023-01-11T05:42:31.925Z,5.99
2023-01-11T05:57:32.058Z,6.04
2023-01-11T06:12:34.385Z,6.11
2023-01-11T06:27:34.746Z,6.11
2023-01-11T06:42:36.176Z,6.04
2023-01-11T06:57:37.068Z,5.99
2023-01-11T07:12:38.484Z,6.09
2023-01-11T07:27:38.577Z,6.34
2023-01-11T07:42:38.714Z,6.43
2023-01-11T07:57:38.861Z,6.34
2023-01-11T08:12:38.921Z,6.09
2023-01-11T08:27:40.774Z,5.97
2023-01-11T08:42:41.059Z,5.91
2023-01-11T08:57:40.677Z,5.89
2023-01-11T09:12:40.857Z,5.94
2023-01-11T09:27:41.468Z,6.06
2023-01-11T09:42:42.147Z,6.22
2023-01-11T09:57:42.752Z,6.30
2023-01-11T10:27:48.252Z,6.66
2023-01-11T10:42:48.363Z,6.69
2023-01-11T10:57:59.400Z,6.89
2023-01-11T11:12:53.843Z,6.94
2023-01-11T11:27:53.796Z,7.06
2023-01-11T11:42:53.920Z,7.15
2023-01-11T11:57:54.234Z,7.30
2023-01-11T12:12:54.444Z,7.37
2023-01-11T12:27:56.249Z,7.48
2023-01-11T12:42:57.640Z,7.75
2023-01-11T12:57:58.031Z,7.80
2023-01-11T13:12:59.191Z,7.86
2023-01-11T13:27:59.557Z,7.95
2023-01-11T13:42:59.746Z,8.02
2023-01-11T13:58:00.437Z,8.01
2023-01-11T14:13:00.988Z,8.12
2023-01-11T14:28:02.407Z,8.12
2023-01-11T14:43:02.488Z,8.07
2023-01-11T14:58:02.603Z,8.20
2023-01-11T15:13:03.944Z,8.16
2023-01-11T15:28:04.676Z,8.33
2023-01-11T15:43:04.944Z,8.38
2023-01-11T15:58:05.245Z,8.45
2023-01-11T16:13:05.133Z,8.58
2023-01-11T16:28:06.524Z,8.63
2023-01-11T16:43:07.276Z,8.62
2023-01-11T16:58:08.352Z,8.65
2023-01-11T17:13:08.653Z,8.77
2023-01-11T17:28:09.992Z,8.73
2023-01-11T17:43:09.980Z,8.68
2023-01-11T17:58:10.217Z,8.62
2023-01-11T18:13:10.447Z,8.52
2023-01-11T18:28:10.792Z,8.45
2023-01-11T18:43:12.302Z,8.41
2023-01-11T18:58:12.511Z,8.20
2023-01-11T19:13:12.738Z,8.18
2023-01-11T19:28:13.079Z,8.16
2023-01-11T19:43:13.303Z,8.10
2023-01-11T19:58:13.527Z,8.00
2023-01-11T20:13:13.904Z,7.89
2023-01-11T20:28:14.452Z,7.68
2023-01-11T20:43:14.671Z,7.58
2023-01-11T20:58:15.467Z,7.49
2023-01-11T21:13:15.676Z,7.25
2023-01-11T21:28:16.284Z,6.94
2023-01-11T21:43:16.145Z,6.54
2023-01-11T21:58:16.263Z,6.18
2023-01-11T22:13:16.385Z,5.96
2023-01-11T22:28:16.575Z,5.67
2023-01-11T22:43:17.127Z,5.39
2023-01-11T22:58:17.407Z,5.36
2023-01-11T23:13:18.023Z,5.27
2023-01-11T23:28:18.812Z,5.22
2023-01-11T23:43:18.957Z,5.17
2023-01-11T23:58:19.597Z,5.10
